Time,TemperatureF,DewpointF,PressureIn,WindDirection,WindDirectionDegrees,WindSpeedMPH,WindSpeedGustMPH,Humidity,HourlyPrecipIn,Conditions,Clouds,dailyrainin,SolarRadiationWatts/m^2,SoftwareType,DateUTC
2013-04-07 00:03:00,52.0,50.0,-100.00,NW,313,0.0,0.0,93,0.00,,,0.00,0.000000,,2013-04-07 04:03:00,
2013-04-07 00:32:00,51.0,49.0,-100.00,NW,305,0.0,0.0,94,0.00,,,0.00,0.000000,,2013-04-07 04:32:00,
2013-04-07 00:43:00,51.0,49.0,-100.00,NW,305,0.0,0.0,94,0.00,,,0.00,0.000000,,2013-04-07 04:43:00,
2013-04-07 00:53:00,51.0,49.0,-100.00,NW,305,0.0,0.0,94,0.00,,,0.00,0.000000,,2013-04-07 04:53:00,
2013-04-07 01:02:00,51.0,49.0,-100.00,NW,305,0.0,0.0,94,0.00,,,0.00,0.000000,,2013-04-07 05:02:00,
2013-04-07 01:23:00,51.0,49.0,-100.00,NNE,24,0.0,0.0,94,0.00,,,0.00,0.000000,,2013-04-07 05:23:00,
2013-04-07 01:34:00,51.0,49.0,-100.00,NNE,24,0.0,0.0,94,0.00,,,0.00,0.000000,,2013-04-07 05:34:00,
2013-04-07 01:43:00,51.0,49.0,-100.00,NNE,24,0.0,0.0,94,0.00,,,0.00,0.000000,,2013-04-07 05:43:00,
2013-04-07 01:53:00,51.0,49.0,-100.00,NNE,24,0.0,0.0,94,0.00,,,0.00,0.000000,,2013-04-07 05:53:00,
2013-04-07 02:02:00,51.0,49.0,-100.00,NNE,24,0.0,0.0,94,0.00,,,0.00,0.000000,,2013-04-07 06:02:00,
2013-04-07 02:33:00,51.0,49.0,-100.00,East,86,0.0,2.0,94,0.00,,,0.00,0.000000,,2013-04-07 06:33:00,
2013-04-07 02:43:00,51.0,49.0,-100.00,East,86,0.0,2.0,94,0.00,,,0.00,0.000000,,2013-04-07 06:43:00,
2013-04-07 02:53:00,51.0,49.0,-100.00,East,86,0.0,2.0,94,0.00,,,0.00,0.000000,,2013-04-07 06:53:00,
2013-04-07 03:02:00,51.0,49.0,-100.00,East,86,0.0,2.0,94,0.00,,,0.00,0.000000,,2013-04-07 07:02:00,
2013-04-07 03:33:00,51.0,50.0,-100.00,NE,35,0.0,0.0,95,0.00,,,0.00,0.000000,,2013-04-07 07:33:00,
2013-04-07 03:42:00,51.0,50.0,-100.00,NE,35,0.0,0.0,95,0.00,,,0.00,0.000000,,2013-04-07 07:42:00,
2013-04-07 03:52:00,51.0,50.0,-100.00,NE,35,0.0,0.0,95,0.00,,,0.00,0.000000,,2013-04-07 07:52:00,
2013-04-07 04:02:00,51.0,50.0,-100.00,NE,35,0.0,0.0,95,0.00,,,0.00,0.000000,,2013-04-07 08:02:00,
2013-04-07 04:33:00,51.0,50.0,-100.00,NNW,345,0.0,0.0,95,0.00,,,0.00,0.000000,,2013-04-07 08:33:00,
2013-04-07 04:43:00,51.0,50.0,-100.00,NNW,345,0.0,0.0,95,0.00,,,0.00,0.000000,,2013-04-07 08:43:00,
2013-04-07 04:53:00,51.0,50.0,-100.00,NNW,345,0.0,0.0,95,0.00,,,0.00,0.000000,,2013-04-07 08:53:00,
2013-04-07 05:02:00,51.0,50.0,-100.00,NNW,345,0.0,0.0,95,0.00,,,0.00,0.000000,,2013-04-07 09:02:00,
2013-04-07 05:04:00,51.0,50.0,-100.00,NNW,329,1.0,3.0,95,0.00,,,0.00,0.000000,,2013-04-07 09:04:00,
2013-04-07 05:23:00,51.0,50.0,-100.00,NNW,329,1.0,3.0,95,0.00,,,0.00,0.000000,,2013-04-07 09:23:00,
2013-04-07 05:34:00,51.0,50.0,-100.00,NNW,329,1.0,3.0,95,0.00,,,0.00,0.000000,,2013-04-07 09:34:00,
2013-04-07 05:45:00,51.0,50.0,-100.00,NNW,329,1.0,3.0,95,0.00,,,0.00,0.000000,,2013-04-07 09:45:00,
2013-04-07 05:54:00,51.0,50.0,-100.00,NNW,329,1.0,3.0,95,0.00,,,0.00,0.000000,,2013-04-07 09:54:00,
2013-04-07 06:34:00,50.0,49.0,-100.00,NW,314,0.0,0.0,95,0.00,,,0.00,0.000000,,2013-04-07 10:34:00,
2013-04-07 06:43:00,50.0,49.0,-100.00,NW,314,0.0,0.0,95,0.00,,,0.00,0.000000,,2013-04-07 10:43:00,
2013-04-07 06:54:00,50.0,49.0,-100.00,NW,314,0.0,0.0,95,0.00,,,0.00,0.000000,,2013-04-07 10:54:00,
2013-04-07 07:03:00,50.0,49.0,-100.00,NW,314,0.0,0.0,95,0.00,,,0.00,0.000000,,2013-04-07 11:03:00,
2013-04-07 07:33:00,50.0,49.0,-100.00,WNW,303,0.0,0.0,95,0.00,,,0.00,0.000000,,2013-04-07 11:33:00,
2013-04-07 07:43:00,50.0,49.0,-100.00,WNW,303,0.0,0.0,95,0.00,,,0.00,0.000000,,2013-04-07 11:43:00,
2013-04-07 07:53:00,50.0,49.0,-100.00,WNW,303,0.0,0.0,95,0.00,,,0.00,0.000000,,2013-04-07 11:53:00,
2013-04-07 08:03:00,50.0,49.0,-100.00,WNW,303,0.0,0.0,95,0.00,,,0.00,0.000000,,2013-04-07 12:03:00,
2013-04-07 08:04:00,53.0,52.0,-100.00,NNW,340,0.0,0.0,95,0.00,,,0.00,37.000000,,2013-04-07 12:04:00,
2013-04-07 08:23:00,53.0,52.0,-100.00,NNW,340,0.0,0.0,95,0.00,,,0.00,37.000000,,2013-04-07 12:23:00,
2013-04-07 08:35:00,53.0,52.0,-100.00,NNW,340,0.0,0.0,95,0.00,,,0.00,37.000000,,2013-04-07 12:35:00,
2013-04-07 08:43:00,53.0,52.0,-100.00,NNW,340,0.0,0.0,95,0.00,,,0.00,37.000000,,2013-04-07 12:43:00,
2013-04-07 08:54:00,53.0,52.0,-100.00,NNW,340,0.0,0.0,95,0.00,,,0.00,37.000000,,2013-04-07 12:54:00,
2013-04-07 09:23:00,62.0,61.0,-100.00,East,86,3.0,5.0,95,0.00,,,0.00,195.000000,,2013-04-07 13:23:00,
2013-04-07 09:33:00,62.0,61.0,-100.00,East,86,3.0,5.0,95,0.00,,,0.00,195.000000,,2013-04-07 13:33:00,
2013-04-07 09:43:00,62.0,61.0,-100.00,East,86,3.0,5.0,95,0.00,,,0.00,195.000000,,2013-04-07 13:43:00,
2013-04-07 09:53:00,62.0,61.0,-100.00,East,86,3.0,5.0,95,0.00,,,0.00,195.000000,,2013-04-07 13:53:00,
2013-04-07 10:02:00,62.0,61.0,-100.00,East,86,3.0,5.0,95,0.00,,,0.00,195.000000,,2013-04-07 14:02:00,
2013-04-07 10:33:00,71.0,63.0,-100.00,East,81,4.0,7.0,75,0.00,,,0.00,399.000000,,2013-04-07 14:33:00,
2013-04-07 10:44:00,71.0,63.0,-100.00,East,81,4.0,7.0,75,0.00,,,0.00,399.000000,,2013-04-07 14:44:00,
2013-04-07 10:55:00,71.0,63.0,-100.00,East,81,4.0,7.0,75,0.00,,,0.00,399.000000,,2013-04-07 14:55:00,
2013-04-07 11:03:00,71.0,63.0,-100.00,East,81,4.0,7.0,75,0.00,,,0.00,399.000000,,2013-04-07 15:03:00,
2013-04-07 12:04:00,75.0,55.0,-100.00,ESE,122,6.0,10.0,49,-99.99,,,0.00,617.000000,,2013-04-07 16:04:00,
2013-04-07 12:34:00,75.0,55.0,-100.00,ESE,122,6.0,10.0,49,-99.99,,,0.00,617.000000,,2013-04-07 16:34:00,
2013-04-07 12:44:00,75.0,55.0,-100.00,ESE,122,6.0,10.0,49,-99.99,,,0.00,617.000000,,2013-04-07 16:44:00,
2013-04-07 12:54:00,75.0,55.0,-100.00,ESE,122,6.0,10.0,49,-99.99,,,0.00,617.000000,,2013-04-07 16:54:00,
2013-04-07 13:24:00,76.0,52.0,-100.00,SE,139,5.0,13.0,44,0.00,,,0.00,955.000000,,2013-04-07 17:24:00,
2013-04-07 13:34:00,76.0,52.0,-100.00,SE,139,5.0,13.0,44,0.00,,,0.00,955.000000,,2013-04-07 17:34:00,
2013-04-07 13:43:00,76.0,52.0,-100.00,SE,139,5.0,13.0,44,0.00,,,0.00,955.000000,,2013-04-07 17:43:00,
2013-04-07 13:54:00,76.0,52.0,-100.00,SE,139,5.0,13.0,44,0.00,,,0.00,955.000000,,2013-04-07 17:54:00,
2013-04-07 14:03:00,76.0,52.0,-100.00,SE,139,5.0,13.0,44,0.00,,,0.00,955.000000,,2013-04-07 18:03:00,
2013-04-07 14:33:00,78.0,54.0,-100.00,SE,131,5.0,13.0,44,0.00,,,0.00,1078.000000,,2013-04-07 18:33:00,
2013-04-07 14:44:00,78.0,54.0,-100.00,SE,131,5.0,13.0,44,0.00,,,0.00,1078.000000,,2013-04-07 18:44:00,
2013-04-07 14:53:00,78.0,54.0,-100.00,SE,131,5.0,13.0,44,0.00,,,0.00,1078.000000,,2013-04-07 18:53:00,
2013-04-07 15:03:00,78.0,54.0,-100.00,SE,131,5.0,13.0,44,0.00,,,0.00,1078.000000,,2013-04-07 19:03:00,
2013-04-07 15:23:00,78.0,54.0,-100.00,SE,134,5.0,14.0,43,0.00,,,0.00,985.000000,,2013-04-07 19:23:00,
2013-04-07 15:33:00,78.0,54.0,-100.00,SE,134,5.0,14.0,43,0.00,,,0.00,985.000000,,2013-04-07 19:33:00,
2013-04-07 15:43:00,78.0,54.0,-100.00,SE,134,5.0,14.0,43,0.00,,,0.00,985.000000,,2013-04-07 19:43:00,
2013-04-07 15:55:00,78.0,54.0,-100.00,SE,134,5.0,14.0,43,0.00,,,0.00,985.000000,,2013-04-07 19:55:00,
2013-04-07 16:03:00,78.0,54.0,-100.00,SE,134,5.0,14.0,43,0.00,,,0.00,985.000000,,2013-04-07 20:03:00,
2013-04-07 16:04:00,76.0,52.0,-100.00,SE,126,6.0,12.0,43,0.00,,,0.00,867.000000,,2013-04-07 20:04:00,
2013-04-07 16:33:00,76.0,52.0,-100.00,SE,126,6.0,12.0,43,0.00,,,0.00,867.000000,,2013-04-07 20:33:00,
2013-04-07 16:44:00,76.0,52.0,-100.00,SE,126,6.0,12.0,43,0.00,,,0.00,867.000000,,2013-04-07 20:44:00,
2013-04-07 16:55:00,76.0,52.0,-100.00,SE,126,6.0,12.0,43,0.00,,,0.00,867.000000,,2013-04-07 20:55:00,
2013-04-07 17:04:00,75.0,53.0,-100.00,SE,126,6.0,13.0,46,0.00,,,0.00,685.000000,,2013-04-07 21:04:00,
2013-04-07 17:23:00,75.0,53.0,-100.00,SE,126,6.0,13.0,46,0.00,,,0.00,685.000000,,2013-04-07 21:23:00,
2013-04-07 17:35:00,75.0,53.0,-100.00,SE,126,6.0,13.0,46,0.00,,,0.00,685.000000,,2013-04-07 21:35:00,
2013-04-07 17:45:00,75.0,53.0,-100.00,SE,126,6.0,13.0,46,0.00,,,0.00,685.000000,,2013-04-07 21:45:00,
2013-04-07 17:55:00,75.0,53.0,-100.00,SE,126,6.0,13.0,46,0.00,,,0.00,685.000000,,2013-04-07 21:55:00,
2013-04-07 18:04:00,73.0,56.0,-100.00,SE,127,5.0,13.0,55,0.00,,,0.00,455.000000,,2013-04-07 22:04:00,
2013-04-07 18:24:00,73.0,56.0,-100.00,SE,127,5.0,13.0,55,0.00,,,0.00,455.000000,,2013-04-07 22:24:00,
2013-04-07 18:34:00,73.0,56.0,-100.00,SE,127,5.0,13.0,55,0.00,,,0.00,455.000000,,2013-04-07 22:34:00,
2013-04-07 18:44:00,73.0,56.0,-100.00,SE,127,5.0,13.0,55,0.00,,,0.00,455.000000,,2013-04-07 22:44:00,
2013-04-07 18:54:00,73.0,56.0,-100.00,SE,127,5.0,13.0,55,0.00,,,0.00,455.000000,,2013-04-07 22:54:00,
2013-04-07 19:33:00,71.0,56.0,-100.00,SE,140,4.0,12.0,59,0.00,,,0.00,216.000000,,2013-04-07 23:33:00,
2013-04-07 19:43:00,71.0,56.0,-100.00,SE,140,4.0,12.0,59,0.00,,,0.00,216.000000,,2013-04-07 23:43:00,
2013-04-07 19:53:00,71.0,56.0,-100.00,SE,140,4.0,12.0,59,0.00,,,0.00,216.000000,,2013-04-07 23:53:00,
2013-04-07 20:02:00,71.0,56.0,-100.00,SE,140,4.0,12.0,59,0.00,,,0.00,216.000000,,2013-04-08 00:02:00,
2013-04-07 20:23:00,67.0,56.0,-100.00,East,101,4.0,9.0,68,0.00,,,0.00,29.000000,,2013-04-08 00:23:00,
2013-04-07 20:33:00,67.0,56.0,-100.00,East,101,4.0,9.0,68,0.00,,,0.00,29.000000,,2013-04-08 00:33:00,
2013-04-07 20:43:00,67.0,56.0,-100.00,East,101,4.0,9.0,68,0.00,,,0.00,29.000000,,2013-04-08 00:43:00,
2013-04-07 20:53:00,67.0,56.0,-100.00,East,101,4.0,9.0,68,0.00,,,0.00,29.000000,,2013-04-08 00:53:00,
2013-04-07 21:03:00,67.0,56.0,-100.00,East,101,4.0,9.0,68,0.00,,,0.00,29.000000,,2013-04-08 01:03:00,
2013-04-07 21:23:00,63.0,57.0,-100.00,ESE,108,0.0,4.0,82,0.00,,,0.00,0.000000,,2013-04-08 01:23:00,
2013-04-07 21:34:00,63.0,57.0,-100.00,ESE,108,0.0,4.0,82,0.00,,,0.00,0.000000,,2013-04-08 01:34:00,
2013-04-07 21:45:00,63.0,57.0,-100.00,ESE,108,0.0,4.0,82,0.00,,,0.00,0.000000,,2013-04-08 01:45:00,
2013-04-07 21:55:00,63.0,57.0,-100.00,ESE,108,0.0,4.0,82,0.00,,,0.00,0.000000,,2013-04-08 01:55:00,
2013-04-07 22:03:00,63.0,57.0,-100.00,ESE,108,0.0,4.0,82,0.00,,,0.00,0.000000,,2013-04-08 02:03:00,
2013-04-07 22:04:00,60.0,57.0,-100.00,NNW,347,0.0,1.0,90,0.00,,,0.00,0.000000,,2013-04-08 02:04:00,
2013-04-07 22:33:00,60.0,57.0,-100.00,NNW,347,0.0,1.0,90,0.00,,,0.00,0.000000,,2013-04-08 02:33:00,
2013-04-07 22:49:00,60.0,57.0,-100.00,NNW,347,0.0,1.0,90,0.00,,,0.00,0.000000,,2013-04-08 02:49:00,
2013-04-07 22:55:00,60.0,57.0,-100.00,NNW,347,0.0,1.0,90,0.00,,,0.00,0.000000,,2013-04-08 02:55:00,
2013-04-07 23:37:00,58.0,56.0,-100.00,NE,34,1.0,1.0,93,0.00,,,0.00,0.000000,,2013-04-08 03:37:00,
2013-04-07 23:48:00,58.0,56.0,-100.00,NE,34,1.0,1.0,93,0.00,,,0.00,0.000000,,2013-04-08 03:48:00,
2013-04-07 23:58:00,58.0,56.0,-100.00,NE,34,1.0,1.0,93,0.00,,,0.00,0.000000,,2013-04-08 03:58:00,